DLH4TJ EDDF-EDDM
Flight info
| Callsign | DLH4TJ |
|---|---|
| Flight time | 0h 38m |
| Altitude | 23000 |
| Route | CINDY8S/18 CINDY Z74 HAREM T104 ROKIL ROKIL1B |
| Aircraft | A319/M-SDE3FGHIRWY/LB1 |
Departure
| Time | 2026-05-04 07:38 |
|---|---|
| Airport | Frankfurt Main Airport (EDDF) |
Arrival
| Time | 2026-05-04 08:16 |
|---|---|
| Airport | Munich Airport (EDDM) |
| Time | Latitude | Longitude | Altitude | Speed | Heading |
|---|---|---|---|---|---|
| 2026-05-04 07:04 | 50.04753 | 8.56881 | 356 ft | 0 kts | 294° |
| 2026-05-04 07:26 | 50.04738 | 8.56934 | 363 ft | 3 kts | 295° |
| 2026-05-04 07:27 | 50.04730 | 8.56965 | 363 ft | 4 kts | 266° |
| 2026-05-04 07:27 | 50.04740 | 8.56995 | 360 ft | 4 kts | 210° |
| 2026-05-04 07:27 | 50.04763 | 8.57012 | 361 ft | 4 kts | 204° |
| 2026-05-04 07:27 | 50.04788 | 8.57030 | 362 ft | 4 kts | 205° |
| 2026-05-04 07:28 | 50.04794 | 8.57034 | 361 ft | 0 kts | 205° |
| 2026-05-04 07:29 | 50.04788 | 8.57030 | 362 ft | 3 kts | 205° |
| 2026-05-04 07:30 | 50.04753 | 8.57005 | 365 ft | 8 kts | 205° |
| 2026-05-04 07:30 | 50.04687 | 8.56957 | 358 ft | 12 kts | 204° |
| 2026-05-04 07:30 | 50.04608 | 8.56911 | 356 ft | 13 kts | 194° |
| 2026-05-04 07:30 | 50.04529 | 8.56883 | 359 ft | 11 kts | 193° |
| 2026-05-04 07:31 | 50.04458 | 8.56837 | 360 ft | 12 kts | 225° |
| 2026-05-04 07:31 | 50.04424 | 8.56713 | 362 ft | 14 kts | 250° |
| 2026-05-04 07:33 | 50.04105 | 8.55377 | 358 ft | 22 kts | 249° |
| 2026-05-04 07:33 | 50.04051 | 8.55152 | 360 ft | 22 kts | 250° |
| 2026-05-04 07:33 | 50.03997 | 8.54925 | 358 ft | 23 kts | 249° |
| 2026-05-04 07:33 | 50.03939 | 8.54682 | 350 ft | 25 kts | 250° |
| 2026-05-04 07:34 | 50.03877 | 8.54425 | 349 ft | 26 kts | 249° |
| 2026-05-04 07:34 | 50.03788 | 8.54181 | 352 ft | 27 kts | 250° |
| 2026-05-04 07:34 | 50.03727 | 8.53918 | 346 ft | 24 kts | 249° |
| 2026-05-04 07:34 | 50.03667 | 8.53670 | 342 ft | 25 kts | 249° |
| 2026-05-04 07:35 | 50.03603 | 8.53415 | 337 ft | 26 kts | 249° |
| 2026-05-04 07:35 | 50.03540 | 8.53150 | 337 ft | 27 kts | 250° |
| 2026-05-04 07:35 | 50.03491 | 8.52946 | 333 ft | 17 kts | 250° |
| 2026-05-04 07:35 | 50.03453 | 8.52809 | 336 ft | 11 kts | 245° |
| 2026-05-04 07:36 | 50.03426 | 8.52702 | 333 ft | 11 kts | 249° |
| 2026-05-04 07:36 | 50.03407 | 8.52618 | 335 ft | 7 kts | 250° |
| 2026-05-04 07:38 | 49.99074 | 8.52580 | 2007 ft | 175 kts | 183° |
| 2026-05-04 07:38 | 49.97781 | 8.52610 | 2449 ft | 198 kts | 175° |
| 2026-05-04 07:38 | 49.96437 | 8.53554 | 2790 ft | 230 kts | 139° |
| 2026-05-04 07:38 | 49.95533 | 8.55631 | 3750 ft | 235 kts | 121° |
| 2026-05-04 07:39 | 49.94745 | 8.57830 | 4700 ft | 238 kts | 121° |
| 2026-05-04 07:39 | 49.93935 | 8.60080 | 5683 ft | 241 kts | 120° |
| 2026-05-04 07:39 | 49.93532 | 8.62712 | 6334 ft | 265 kts | 96° |
| 2026-05-04 07:39 | 49.93460 | 8.65694 | 6939 ft | 284 kts | 93° |
| 2026-05-04 07:40 | 49.93106 | 8.68712 | 7848 ft | 287 kts | 113° |
| 2026-05-04 07:40 | 49.92066 | 8.71347 | 8764 ft | 288 kts | 137° |
| 2026-05-04 07:40 | 49.90489 | 8.73264 | 9675 ft | 290 kts | 149° |
| 2026-05-04 07:40 | 49.88889 | 8.75209 | 10599 ft | 297 kts | 139° |
| 2026-05-04 07:41 | 49.87535 | 8.77802 | 11011 ft | 325 kts | 124° |
| 2026-05-04 07:41 | 49.86459 | 8.80907 | 11713 ft | 334 kts | 120° |
| 2026-05-04 07:41 | 49.85350 | 8.84106 | 12536 ft | 340 kts | 121° |
| 2026-05-04 07:41 | 49.84195 | 8.87325 | 13399 ft | 344 kts | 122° |
| 2026-05-04 07:42 | 49.83012 | 8.90563 | 14209 ft | 347 kts | 122° |
| 2026-05-04 07:42 | 49.81813 | 8.93828 | 14965 ft | 350 kts | 123° |
| 2026-05-04 07:42 | 49.80603 | 8.97122 | 15717 ft | 354 kts | 123° |
| 2026-05-04 07:42 | 49.79380 | 9.00450 | 16474 ft | 357 kts | 123° |
| 2026-05-04 07:43 | 49.78151 | 9.03806 | 17225 ft | 360 kts | 123° |
| 2026-05-04 07:43 | 49.76916 | 9.07205 | 17964 ft | 365 kts | 121° |
| 2026-05-04 07:43 | 49.75947 | 9.10814 | 18616 ft | 374 kts | 110° |
| 2026-05-04 07:43 | 49.75289 | 9.14734 | 19207 ft | 378 kts | 110° |
| 2026-05-04 07:44 | 49.74307 | 9.18501 | 19783 ft | 378 kts | 121° |
| 2026-05-04 07:44 | 49.72882 | 9.21908 | 20392 ft | 378 kts | 132° |
| 2026-05-04 07:44 | 49.71154 | 9.24993 | 21003 ft | 381 kts | 135° |
| 2026-05-04 07:44 | 49.69395 | 9.28084 | 21595 ft | 386 kts | 135° |
| 2026-05-04 07:45 | 49.67617 | 9.31220 | 22181 ft | 390 kts | 135° |
| 2026-05-04 07:45 | 49.65817 | 9.34399 | 22755 ft | 395 kts | 135° |
| 2026-05-04 07:45 | 49.64025 | 9.37563 | 22992 ft | 398 kts | 135° |
| 2026-05-04 07:45 | 49.62233 | 9.40732 | 23040 ft | 384 kts | 135° |
| 2026-05-04 07:46 | 49.60513 | 9.43776 | 23040 ft | 371 kts | 135° |
| 2026-05-04 07:46 | 49.58827 | 9.46749 | 23026 ft | 367 kts | 135° |
| 2026-05-04 07:46 | 49.57144 | 9.49702 | 23036 ft | 366 kts | 135° |
| 2026-05-04 07:46 | 49.55464 | 9.52639 | 23043 ft | 365 kts | 135° |
| 2026-05-04 07:47 | 49.53786 | 9.55572 | 23047 ft | 365 kts | 135° |
| 2026-05-04 07:47 | 49.52112 | 9.58504 | 23050 ft | 365 kts | 135° |
| 2026-05-04 07:47 | 49.50434 | 9.61441 | 23050 ft | 365 kts | 135° |
| 2026-05-04 07:49 | 49.38701 | 9.81853 | 23056 ft | 365 kts | 135° |
| 2026-05-04 07:49 | 49.37020 | 9.84768 | 23038 ft | 365 kts | 135° |
| 2026-05-04 07:49 | 49.35336 | 9.87684 | 23044 ft | 365 kts | 135° |
| 2026-05-04 07:50 | 49.33650 | 9.90597 | 23039 ft | 365 kts | 135° |
| 2026-05-04 07:50 | 49.31983 | 9.93474 | 23051 ft | 366 kts | 135° |
| 2026-05-04 07:50 | 49.30295 | 9.96378 | 23059 ft | 365 kts | 135° |
| 2026-05-04 07:50 | 49.28604 | 9.99285 | 23064 ft | 364 kts | 135° |
| 2026-05-04 07:51 | 49.26917 | 10.02183 | 23066 ft | 365 kts | 135° |
| 2026-05-04 07:51 | 49.25231 | 10.05081 | 23069 ft | 364 kts | 135° |
| 2026-05-04 07:51 | 49.23546 | 10.07977 | 23070 ft | 364 kts | 135° |
| 2026-05-04 07:51 | 49.21862 | 10.10861 | 23070 ft | 364 kts | 135° |
| 2026-05-04 07:52 | 49.20175 | 10.13746 | 23068 ft | 364 kts | 135° |
| 2026-05-04 07:52 | 49.18489 | 10.16625 | 23074 ft | 363 kts | 135° |
| 2026-05-04 07:52 | 49.16828 | 10.19465 | 23075 ft | 363 kts | 135° |
| 2026-05-04 07:52 | 49.15144 | 10.22342 | 23063 ft | 363 kts | 135° |
| 2026-05-04 07:53 | 49.13453 | 10.25213 | 23052 ft | 364 kts | 136° |
| 2026-05-04 07:54 | 49.01229 | 10.44784 | 23080 ft | 363 kts | 137° |
| 2026-05-04 07:55 | 48.99513 | 10.47530 | 23083 ft | 363 kts | 137° |
| 2026-05-04 07:55 | 48.97770 | 10.50312 | 23084 ft | 363 kts | 137° |
| 2026-05-04 07:55 | 48.96031 | 10.53088 | 23085 ft | 363 kts | 137° |
| 2026-05-04 07:55 | 48.94293 | 10.55865 | 23081 ft | 362 kts | 137° |
| 2026-05-04 07:56 | 48.92554 | 10.58640 | 23064 ft | 362 kts | 136° |
| 2026-05-04 07:56 | 48.90812 | 10.61412 | 23054 ft | 363 kts | 136° |
| 2026-05-04 07:56 | 48.89062 | 10.64185 | 22927 ft | 365 kts | 137° |
| 2026-05-04 07:56 | 48.87305 | 10.66966 | 22440 ft | 364 kts | 137° |
| 2026-05-04 07:57 | 48.85558 | 10.69730 | 21966 ft | 362 kts | 137° |
| 2026-05-04 07:57 | 48.83817 | 10.72478 | 21497 ft | 360 kts | 137° |
| 2026-05-04 07:57 | 48.82110 | 10.75174 | 21042 ft | 358 kts | 137° |
| 2026-05-04 07:57 | 48.80390 | 10.77890 | 20589 ft | 356 kts | 137° |
| 2026-05-04 07:58 | 48.78676 | 10.80588 | 20128 ft | 355 kts | 136° |
| 2026-05-04 07:58 | 48.77181 | 10.83559 | 19692 ft | 357 kts | 120° |
| 2026-05-04 07:58 | 48.76304 | 10.87086 | 19262 ft | 358 kts | 109° |
| 2026-05-04 07:58 | 48.75579 | 10.90692 | 18831 ft | 357 kts | 109° |
| 2026-05-04 07:59 | 48.74865 | 10.94289 | 18408 ft | 356 kts | 109° |
| 2026-05-04 07:59 | 48.74152 | 10.97882 | 17926 ft | 355 kts | 109° |
| 2026-05-04 07:59 | 48.73441 | 11.01452 | 17450 ft | 354 kts | 109° |
| 2026-05-04 07:59 | 48.72732 | 11.05008 | 16971 ft | 352 kts | 109° |
| 2026-05-04 08:00 | 48.72030 | 11.08504 | 16515 ft | 351 kts | 110° |
| 2026-05-04 08:00 | 48.71315 | 11.12030 | 16060 ft | 350 kts | 110° |
| 2026-05-04 08:00 | 48.70600 | 11.15551 | 15612 ft | 349 kts | 110° |
| 2026-05-04 08:02 | 48.65703 | 11.39617 | 12597 ft | 334 kts | 110° |
| 2026-05-04 08:02 | 48.65020 | 11.42954 | 12162 ft | 331 kts | 110° |
| 2026-05-04 08:02 | 48.64350 | 11.46214 | 11843 ft | 325 kts | 110° |
| 2026-05-04 08:03 | 48.63685 | 11.49438 | 11624 ft | 317 kts | 110° |
| 2026-05-04 08:03 | 48.63041 | 11.52560 | 11495 ft | 306 kts | 110° |
| 2026-05-04 08:03 | 48.62413 | 11.55597 | 11247 ft | 300 kts | 110° |
| 2026-05-04 08:03 | 48.61792 | 11.58595 | 10915 ft | 298 kts | 110° |
| 2026-05-04 08:04 | 48.61173 | 11.61567 | 10576 ft | 296 kts | 110° |
| 2026-05-04 08:04 | 48.60556 | 11.64528 | 10245 ft | 294 kts | 110° |
| 2026-05-04 08:04 | 48.59946 | 11.67465 | 9901 ft | 293 kts | 110° |
| 2026-05-04 08:04 | 48.59340 | 11.70393 | 9523 ft | 291 kts | 110° |
| 2026-05-04 08:05 | 48.58736 | 11.73303 | 9144 ft | 290 kts | 110° |
| 2026-05-04 08:05 | 48.58134 | 11.76192 | 8780 ft | 288 kts | 109° |
| 2026-05-04 08:05 | 48.57542 | 11.79031 | 8519 ft | 287 kts | 109° |
| 2026-05-04 08:05 | 48.56944 | 11.81887 | 8162 ft | 284 kts | 109° |
| 2026-05-04 08:06 | 48.56348 | 11.84723 | 7805 ft | 282 kts | 109° |
| 2026-05-04 08:06 | 48.55754 | 11.87549 | 7563 ft | 282 kts | 109° |
| 2026-05-04 08:06 | 48.55162 | 11.90375 | 7310 ft | 282 kts | 109° |
| 2026-05-04 08:06 | 48.54571 | 11.93188 | 7066 ft | 281 kts | 109° |
| 2026-05-04 08:08 | 48.50393 | 12.12518 | 5316 ft | 273 kts | 121° |
| 2026-05-04 08:08 | 48.49096 | 12.14541 | 5088 ft | 270 kts | 149° |
| 2026-05-04 08:10 | 48.38695 | 12.08962 | 4896 ft | 206 kts | 264° |
| 2026-05-04 08:11 | 48.38541 | 12.06831 | 4671 ft | 206 kts | 264° |
| 2026-05-04 08:11 | 48.38225 | 12.02564 | 4138 ft | 207 kts | 264° |
| 2026-05-04 08:11 | 48.38065 | 12.00407 | 3850 ft | 204 kts | 265° |
| 2026-05-04 08:12 | 48.37909 | 11.98323 | 3585 ft | 201 kts | 265° |
| 2026-05-04 08:12 | 48.37757 | 11.96284 | 3340 ft | 192 kts | 264° |
| 2026-05-04 08:12 | 48.37610 | 11.94339 | 3079 ft | 181 kts | 265° |
| 2026-05-04 08:12 | 48.37471 | 11.92505 | 2846 ft | 174 kts | 264° |
| 2026-05-04 08:13 | 48.37337 | 11.90722 | 2606 ft | 169 kts | 265° |
| 2026-05-04 08:13 | 48.37216 | 11.89000 | 2375 ft | 163 kts | 266° |
| 2026-05-04 08:13 | 48.37091 | 11.87372 | 2188 ft | 153 kts | 264° |
| 2026-05-04 08:13 | 48.36967 | 11.85830 | 1987 ft | 146 kts | 264° |
| 2026-05-04 08:14 | 48.36860 | 11.84351 | 1808 ft | 138 kts | 265° |
| 2026-05-04 08:14 | 48.36751 | 11.82939 | 1641 ft | 138 kts | 265° |
| 2026-05-04 08:14 | 48.36643 | 11.81510 | 1488 ft | 134 kts | 265° |
| 2026-05-04 08:16 | 48.36035 | 11.78529 | 1483 ft | 12 kts | 108° |
| 2026-05-04 08:16 | 48.36044 | 11.78658 | 1485 ft | 13 kts | 82° |
| 2026-05-04 08:16 | 48.36052 | 11.78797 | 1485 ft | 14 kts | 84° |
| 2026-05-04 08:17 | 48.36064 | 11.78945 | 1474 ft | 15 kts | 83° |
| 2026-05-04 08:17 | 48.36076 | 11.79101 | 1483 ft | 16 kts | 84° |
| 2026-05-04 08:17 | 48.36088 | 11.79266 | 1481 ft | 15 kts | 86° |
| 2026-05-04 08:17 | 48.36006 | 11.79331 | 1480 ft | 15 kts | 174° |
| 2026-05-04 08:19 | 48.35296 | 11.79550 | 1477 ft | 11 kts | 173° |
| 2026-05-04 08:19 | 48.35226 | 11.79562 | 1485 ft | 9 kts | 174° |
| 2026-05-04 08:20 | 48.35165 | 11.79572 | 1485 ft | 8 kts | 173° |
| 2026-05-04 08:20 | 48.35113 | 11.79591 | 1475 ft | 8 kts | 152° |
| 2026-05-04 08:20 | 48.35098 | 11.79675 | 1485 ft | 10 kts | 83° |
| 2026-05-04 08:20 | 48.35107 | 11.79779 | 1485 ft | 11 kts | 83° |
| 2026-05-04 08:21 | 48.35116 | 11.79900 | 1480 ft | 14 kts | 84° |
| 2026-05-04 08:21 | 48.35128 | 11.80060 | 1479 ft | 16 kts | 83° |
| 2026-05-04 08:21 | 48.35162 | 11.80186 | 1485 ft | 12 kts | 22° |
| 2026-05-04 08:21 | 48.35241 | 11.80180 | 1476 ft | 11 kts | 354° |
| 2026-05-04 08:22 | 48.35308 | 11.80169 | 1479 ft | 9 kts | 353° |
| 2026-05-04 08:22 | 48.35363 | 11.80159 | 1481 ft | 7 kts | 353° |
| 2026-05-04 08:24 | 48.35381 | 11.80022 | 1485 ft | 0 kts | 262° |